sensor_id;sensor_type;location;lat;lon;timestamp;P1;durP1;ratioP1;P2;durP2;ratioP2
8088;SDS011;57635;49.194;12.104;2022-12-18T00:01:21;34.17;;;25.83;;
8088;SDS011;57635;49.194;12.104;2022-12-18T00:03:50;39.27;;;25.20;;
8088;SDS011;57635;49.194;12.104;2022-12-18T00:06:19;41.53;;;25.37;;
8088;SDS011;57635;49.194;12.104;2022-12-18T00:08:47;44.47;;;26.63;;
8088;SDS011;57635;49.194;12.104;2022-12-18T00:11:16;40.43;;;25.63;;
8088;SDS011;57635;49.194;12.104;2022-12-18T00:13:45;44.40;;;28.40;;
8088;SDS011;57635;49.194;12.104;2022-12-18T00:16:13;49.23;;;30.00;;
8088;SDS011;57635;49.194;12.104;2022-12-18T00:18:43;44.83;;;28.00;;
8088;SDS011;57635;49.194;12.104;2022-12-18T00:21:11;51.20;;;28.23;;
8088;SDS011;57635;49.194;12.104;2022-12-18T00:23:41;43.20;;;26.20;;
8088;SDS011;57635;49.194;12.104;2022-12-18T00:26:10;43.67;;;25.80;;
8088;SDS011;57635;49.194;12.104;2022-12-18T00:28:39;45.67;;;26.47;;
8088;SDS011;57635;49.194;12.104;2022-12-18T00:31:07;38.27;;;23.60;;
8088;SDS011;57635;49.194;12.104;2022-12-18T00:33:35;50.83;;;26.37;;
8088;SDS011;57635;49.194;12.104;2022-12-18T00:36:06;36.53;;;24.00;;
8088;SDS011;57635;49.194;12.104;2022-12-18T00:38:36;41.90;;;25.20;;
8088;SDS011;57635;49.194;12.104;2022-12-18T00:41:05;48.23;;;27.70;;
8088;SDS011;57635;49.194;12.104;2022-12-18T00:43:33;37.37;;;21.87;;
8088;SDS011;57635;49.194;12.104;2022-12-18T00:46:01;40.73;;;24.10;;
8088;SDS011;57635;49.194;12.104;2022-12-18T00:48:30;34.13;;;22.37;;
8088;SDS011;57635;49.194;12.104;2022-12-18T00:50:58;37.93;;;24.13;;
8088;SDS011;57635;49.194;12.104;2022-12-18T00:53:27;43.07;;;25.13;;
8088;SDS011;57635;49.194;12.104;2022-12-18T00:55:55;40.20;;;23.17;;
8088;SDS011;57635;49.194;12.104;2022-12-18T00:58:22;39.80;;;23.23;;
8088;SDS011;57635;49.194;12.104;2022-12-18T01:00:50;38.47;;;23.93;;
8088;SDS011;57635;49.194;12.104;2022-12-18T01:03:18;35.63;;;22.03;;
8088;SDS011;57635;49.194;12.104;2022-12-18T01:05:45;37.20;;;22.20;;
8088;SDS011;57635;49.194;12.104;2022-12-18T01:08:13;37.10;;;22.23;;
8088;SDS011;57635;49.194;12.104;2022-12-18T01:10:42;35.73;;;24.10;;
8088;SDS011;57635;49.194;12.104;2022-12-18T01:13:10;37.00;;;23.80;;
8088;SDS011;57635;49.194;12.104;2022-12-18T01:15:37;33.73;;;22.70;;
8088;SDS011;57635;49.194;12.104;2022-12-18T01:18:06;39.53;;;23.70;;
8088;SDS011;57635;49.194;12.104;2022-12-18T01:20:34;41.73;;;24.17;;
8088;SDS011;57635;49.194;12.104;2022-12-18T01:23:02;35.60;;;22.77;;
8088;SDS011;57635;49.194;12.104;2022-12-18T01:25:29;36.33;;;22.20;;
8088;SDS011;57635;49.194;12.104;2022-12-18T01:27:58;36.50;;;22.27;;
8088;SDS011;57635;49.194;12.104;2022-12-18T01:30:26;35.13;;;22.23;;
8088;SDS011;57635;49.194;12.104;2022-12-18T01:32:53;33.17;;;21.70;;
8088;SDS011;57635;49.194;12.104;2022-12-18T01:35:21;32.33;;;20.57;;
8088;SDS011;57635;49.194;12.104;2022-12-18T01:37:49;34.07;;;20.43;;
8088;SDS011;57635;49.194;12.104;2022-12-18T01:40:17;36.90;;;22.33;;
8088;SDS011;57635;49.194;12.104;2022-12-18T01:42:45;30.57;;;20.53;;
8088;SDS011;57635;49.194;12.104;2022-12-18T01:45:25;33.17;;;21.63;;
8088;SDS011;57635;49.194;12.104;2022-12-18T01:47:55;32.57;;;21.77;;
8088;SDS011;57635;49.194;12.104;2022-12-18T01:50:25;36.70;;;21.07;;
8088;SDS011;57635;49.194;12.104;2022-12-18T01:52:56;40.77;;;23.10;;
8088;SDS011;57635;49.194;12.104;2022-12-18T01:55:28;37.47;;;20.30;;
8088;SDS011;57635;49.194;12.104;2022-12-18T01:57:57;33.23;;;20.23;;
8088;SDS011;57635;49.194;12.104;2022-12-18T02:00:27;30.30;;;18.83;;
8088;SDS011;57635;49.194;12.104;2022-12-18T02:02:56;33.33;;;19.87;;
8088;SDS011;57635;49.194;12.104;2022-12-18T02:05:27;38.07;;;20.80;;
8088;SDS011;57635;49.194;12.104;2022-12-18T02:08:02;39.17;;;22.77;;
8088;SDS011;57635;49.194;12.104;2022-12-18T02:10:39;32.57;;;19.63;;
8088;SDS011;57635;49.194;12.104;2022-12-18T02:13:12;32.63;;;19.40;;
8088;SDS011;57635;49.194;12.104;2022-12-18T02:15:44;34.67;;;20.60;;
8088;SDS011;57635;49.194;12.104;2022-12-18T02:18:18;30.93;;;21.83;;
8088;SDS011;57635;49.194;12.104;2022-12-18T02:20:48;35.07;;;19.80;;
8088;SDS011;57635;49.194;12.104;2022-12-18T02:23:23;31.17;;;19.70;;
8088;SDS011;57635;49.194;12.104;2022-12-18T02:26:07;34.30;;;20.40;;
8088;SDS011;57635;49.194;12.104;2022-12-18T02:28:46;28.47;;;18.00;;
8088;SDS011;57635;49.194;12.104;2022-12-18T02:31:18;32.70;;;18.53;;
8088;SDS011;57635;49.194;12.104;2022-12-18T02:33:51;28.20;;;17.43;;
8088;SDS011;57635;49.194;12.104;2022-12-18T02:36:21;32.83;;;20.30;;
8088;SDS011;57635;49.194;12.104;2022-12-18T02:38:49;32.30;;;20.63;;
8088;SDS011;57635;49.194;12.104;2022-12-18T02:41:19;34.67;;;20.67;;
8088;SDS011;57635;49.194;12.104;2022-12-18T02:43:48;27.80;;;18.50;;
8088;SDS011;57635;49.194;12.104;2022-12-18T02:46:23;33.00;;;20.03;;
8088;SDS011;57635;49.194;12.104;2022-12-18T02:48:57;32.87;;;19.23;;
8088;SDS011;57635;49.194;12.104;2022-12-18T02:51:36;33.93;;;19.43;;
8088;SDS011;57635;49.194;12.104;2022-12-18T02:54:08;33.43;;;19.77;;
8088;SDS011;57635;49.194;12.104;2022-12-18T02:56:40;31.77;;;18.23;;
8088;SDS011;57635;49.194;12.104;2022-12-18T02:59:12;27.37;;;17.70;;
8088;SDS011;57635;49.194;12.104;2022-12-18T03:01:42;30.37;;;19.30;;
8088;SDS011;57635;49.194;12.104;2022-12-18T03:04:13;35.70;;;20.27;;
8088;SDS011;57635;49.194;12.104;2022-12-18T03:06:44;29.50;;;18.53;;
8088;SDS011;57635;49.194;12.104;2022-12-18T03:09:14;26.40;;;18.90;;
8088;SDS011;57635;49.194;12.104;2022-12-18T03:11:46;35.97;;;21.13;;
8088;SDS011;57635;49.194;12.104;2022-12-18T03:14:32;31.43;;;19.33;;
8088;SDS011;57635;49.194;12.104;2022-12-18T03:17:02;35.53;;;19.23;;
8088;SDS011;57635;49.194;12.104;2022-12-18T03:19:32;31.70;;;19.67;;
8088;SDS011;57635;49.194;12.104;2022-12-18T03:22:01;29.50;;;17.93;;
8088;SDS011;57635;49.194;12.104;2022-12-18T03:24:30;33.60;;;18.80;;
8088;SDS011;57635;49.194;12.104;2022-12-18T03:27:00;36.60;;;19.80;;
8088;SDS011;57635;49.194;12.104;2022-12-18T03:29:31;31.47;;;18.53;;
8088;SDS011;57635;49.194;12.104;2022-12-18T03:32:09;34.30;;;19.60;;
8088;SDS011;57635;49.194;12.104;2022-12-18T03:34:39;27.33;;;17.87;;
8088;SDS011;57635;49.194;12.104;2022-12-18T03:37:07;37.27;;;19.80;;
8088;SDS011;57635;49.194;12.104;2022-12-18T03:39:36;30.80;;;19.00;;
8088;SDS011;57635;49.194;12.104;2022-12-18T03:42:07;26.97;;;19.00;;
8088;SDS011;57635;49.194;12.104;2022-12-18T03:44:40;34.03;;;20.47;;
8088;SDS011;57635;49.194;12.104;2022-12-18T03:47:13;30.87;;;17.90;;
8088;SDS011;57635;49.194;12.104;2022-12-18T03:49:44;25.77;;;17.27;;
8088;SDS011;57635;49.194;12.104;2022-12-18T03:52:17;28.47;;;18.13;;
8088;SDS011;57635;49.194;12.104;2022-12-18T03:54:48;27.10;;;17.80;;
8088;SDS011;57635;49.194;12.104;2022-12-18T03:57:18;30.47;;;18.77;;
8088;SDS011;57635;49.194;12.104;2022-12-18T03:59:47;28.00;;;18.73;;
8088;SDS011;57635;49.194;12.104;2022-12-18T04:02:18;28.70;;;17.87;;
8088;SDS011;57635;49.194;12.104;2022-12-18T04:04:46;29.60;;;18.50;;
8088;SDS011;57635;49.194;12.104;2022-12-18T04:07:15;28.60;;;18.73;;
8088;SDS011;57635;49.194;12.104;2022-12-18T04:09:43;29.80;;;18.83;;
8088;SDS011;57635;49.194;12.104;2022-12-18T04:12:11;27.03;;;17.60;;
8088;SDS011;57635;49.194;12.104;2022-12-18T04:14:40;29.17;;;18.50;;
8088;SDS011;57635;49.194;12.104;2022-12-18T04:17:09;27.50;;;17.27;;
8088;SDS011;57635;49.194;12.104;2022-12-18T04:19:38;23.90;;;17.40;;
8088;SDS011;57635;49.194;12.104;2022-12-18T04:22:06;26.30;;;16.03;;
8088;SDS011;57635;49.194;12.104;2022-12-18T04:24:35;25.50;;;17.63;;
8088;SDS011;57635;49.194;12.104;2022-12-18T04:27:03;27.73;;;17.07;;
8088;SDS011;57635;49.194;12.104;2022-12-18T04:29:31;23.23;;;16.23;;
8088;SDS011;57635;49.194;12.104;2022-12-18T04:32:01;28.57;;;17.13;;
8088;SDS011;57635;49.194;12.104;2022-12-18T04:34:28;25.17;;;16.40;;
8088;SDS011;57635;49.194;12.104;2022-12-18T04:36:56;26.10;;;16.80;;
8088;SDS011;57635;49.194;12.104;2022-12-18T04:39:24;26.97;;;16.90;;
8088;SDS011;57635;49.194;12.104;2022-12-18T04:41:51;24.33;;;16.63;;
8088;SDS011;57635;49.194;12.104;2022-12-18T04:44:19;28.80;;;18.10;;
8088;SDS011;57635;49.194;12.104;2022-12-18T04:46:47;30.10;;;16.90;;
8088;SDS011;57635;49.194;12.104;2022-12-18T04:49:16;24.40;;;16.63;;
8088;SDS011;57635;49.194;12.104;2022-12-18T04:51:43;27.10;;;16.77;;
8088;SDS011;57635;49.194;12.104;2022-12-18T04:54:11;30.30;;;17.43;;
8088;SDS011;57635;49.194;12.104;2022-12-18T04:56:39;27.57;;;16.30;;
8088;SDS011;57635;49.194;12.104;2022-12-18T04:59:07;30.53;;;18.17;;
8088;SDS011;57635;49.194;12.104;2022-12-18T05:01:34;26.93;;;17.37;;
8088;SDS011;57635;49.194;12.104;2022-12-18T05:04:02;31.03;;;18.27;;
8088;SDS011;57635;49.194;12.104;2022-12-18T05:06:32;24.57;;;17.70;;
8088;SDS011;57635;49.194;12.104;2022-12-18T05:08:59;29.40;;;18.73;;
8088;SDS011;57635;49.194;12.104;2022-12-18T05:11:27;28.67;;;18.33;;
8088;SDS011;57635;49.194;12.104;2022-12-18T05:13:56;30.43;;;17.53;;
8088;SDS011;57635;49.194;12.104;2022-12-18T05:16:23;30.17;;;17.63;;
8088;SDS011;57635;49.194;12.104;2022-12-18T05:18:51;29.73;;;19.43;;
8088;SDS011;57635;49.194;12.104;2022-12-18T05:21:19;27.73;;;17.37;;
8088;SDS011;57635;49.194;12.104;2022-12-18T05:23:48;33.40;;;20.52;;
8088;SDS011;57635;49.194;12.104;2022-12-18T05:26:16;26.73;;;18.77;;
8088;SDS011;57635;49.194;12.104;2022-12-18T05:28:44;30.93;;;18.87;;
8088;SDS011;57635;49.194;12.104;2022-12-18T05:31:12;25.30;;;18.87;;
8088;SDS011;57635;49.194;12.104;2022-12-18T05:33:40;28.80;;;19.17;;
8088;SDS011;57635;49.194;12.104;2022-12-18T05:36:09;26.27;;;17.90;;
8088;SDS011;57635;49.194;12.104;2022-12-18T05:38:37;27.93;;;17.83;;
8088;SDS011;57635;49.194;12.104;2022-12-18T05:41:07;26.77;;;18.87;;
8088;SDS011;57635;49.194;12.104;2022-12-18T05:43:36;29.13;;;18.50;;
8088;SDS011;57635;49.194;12.104;2022-12-18T05:46:05;29.73;;;18.70;;
8088;SDS011;57635;49.194;12.104;2022-12-18T05:48:34;36.47;;;24.23;;
8088;SDS011;57635;49.194;12.104;2022-12-18T05:51:05;30.17;;;20.93;;
8088;SDS011;57635;49.194;12.104;2022-12-18T05:53:34;32.77;;;19.23;;
8088;SDS011;57635;49.194;12.104;2022-12-18T05:56:04;27.40;;;18.97;;
8088;SDS011;57635;49.194;12.104;2022-12-18T05:58:34;26.23;;;18.00;;
8088;SDS011;57635;49.194;12.104;2022-12-18T06:01:06;26.13;;;17.23;;
8088;SDS011;57635;49.194;12.104;2022-12-18T06:03:34;30.67;;;17.53;;
8088;SDS011;57635;49.194;12.104;2022-12-18T06:06:03;27.73;;;18.67;;
8088;SDS011;57635;49.194;12.104;2022-12-18T06:08:31;34.40;;;23.00;;
8088;SDS011;57635;49.194;12.104;2022-12-18T06:10:58;28.00;;;19.30;;
8088;SDS011;57635;49.194;12.104;2022-12-18T06:13:27;28.87;;;17.33;;
8088;SDS011;57635;49.194;12.104;2022-12-18T06:15:56;25.53;;;16.43;;
8088;SDS011;57635;49.194;12.104;2022-12-18T06:18:23;24.47;;;17.60;;
8088;SDS011;57635;49.194;12.104;2022-12-18T06:20:55;30.98;;;21.08;;
8088;SDS011;57635;49.194;12.104;2022-12-18T06:23:23;34.08;;;25.08;;
8088;SDS011;57635;49.194;12.104;2022-12-18T06:25:51;32.67;;;19.47;;
8088;SDS011;57635;49.194;12.104;2022-12-18T06:28:19;28.90;;;17.83;;
8088;SDS011;57635;49.194;12.104;2022-12-18T06:30:47;27.90;;;18.20;;
8088;SDS011;57635;49.194;12.104;2022-12-18T06:33:16;30.57;;;18.07;;
8088;SDS011;57635;49.194;12.104;2022-12-18T06:35:44;30.27;;;18.40;;
8088;SDS011;57635;49.194;12.104;2022-12-18T06:38:12;32.80;;;18.10;;
8088;SDS011;57635;49.194;12.104;2022-12-18T06:40:39;25.57;;;17.57;;
8088;SDS011;57635;49.194;12.104;2022-12-18T06:43:07;27.30;;;17.30;;
8088;SDS011;57635;49.194;12.104;2022-12-18T06:45:35;26.17;;;17.60;;
8088;SDS011;57635;49.194;12.104;2022-12-18T06:48:03;28.13;;;17.70;;
8088;SDS011;57635;49.194;12.104;2022-12-18T06:50:33;27.40;;;18.13;;
8088;SDS011;57635;49.194;12.104;2022-12-18T06:53:00;27.07;;;16.77;;
8088;SDS011;57635;49.194;12.104;2022-12-18T06:55:29;24.53;;;16.77;;
8088;SDS011;57635;49.194;12.104;2022-12-18T06:57:56;25.07;;;17.23;;
8088;SDS011;57635;49.194;12.104;2022-12-18T07:00:24;31.43;;;18.40;;
8088;SDS011;57635;49.194;12.104;2022-12-18T07:02:52;27.47;;;17.67;;
8088;SDS011;57635;49.194;12.104;2022-12-18T07:05:19;23.00;;;16.50;;
8088;SDS011;57635;49.194;12.104;2022-12-18T07:07:48;33.60;;;23.63;;
8088;SDS011;57635;49.194;12.104;2022-12-18T07:10:16;27.20;;;18.00;;
8088;SDS011;57635;49.194;12.104;2022-12-18T07:12:43;25.97;;;17.87;;
8088;SDS011;57635;49.194;12.104;2022-12-18T07:15:12;27.40;;;17.93;;
8088;SDS011;57635;49.194;12.104;2022-12-18T07:17:40;23.83;;;16.03;;
8088;SDS011;57635;49.194;12.104;2022-12-18T07:20:08;23.67;;;16.53;;
8088;SDS011;57635;49.194;12.104;2022-12-18T07:22:37;22.23;;;17.33;;
8088;SDS011;57635;49.194;12.104;2022-12-18T07:25:07;19.73;;;15.57;;
8088;SDS011;57635;49.194;12.104;2022-12-18T07:27:34;25.67;;;15.60;;
8088;SDS011;57635;49.194;12.104;2022-12-18T07:30:02;28.67;;;17.13;;
8088;SDS011;57635;49.194;12.104;2022-12-18T07:32:31;26.43;;;16.77;;
8088;SDS011;57635;49.194;12.104;2022-12-18T07:34:58;21.93;;;15.73;;
8088;SDS011;57635;49.194;12.104;2022-12-18T07:37:26;24.60;;;16.43;;
8088;SDS011;57635;49.194;12.104;2022-12-18T07:39:54;23.43;;;16.57;;
8088;SDS011;57635;49.194;12.104;2022-12-18T07:42:23;22.13;;;15.60;;
8088;SDS011;57635;49.194;12.104;2022-12-18T07:45:01;27.00;;;17.33;;
8088;SDS011;57635;49.194;12.104;2022-12-18T07:47:29;25.03;;;16.67;;
8088;SDS011;57635;49.194;12.104;2022-12-18T07:49:58;25.80;;;16.27;;
8088;SDS011;57635;49.194;12.104;2022-12-18T07:52:26;28.13;;;18.10;;
8088;SDS011;57635;49.194;12.104;2022-12-18T07:54:53;25.00;;;17.03;;
8088;SDS011;57635;49.194;12.104;2022-12-18T07:57:23;27.87;;;18.33;;
8088;SDS011;57635;49.194;12.104;2022-12-18T08:00:11;24.33;;;15.90;;
8088;SDS011;57635;49.194;12.104;2022-12-18T08:02:39;25.20;;;16.97;;
8088;SDS011;57635;49.194;12.104;2022-12-18T08:05:08;26.77;;;17.90;;
8088;SDS011;57635;49.194;12.104;2022-12-18T08:07:36;23.77;;;18.20;;
8088;SDS011;57635;49.194;12.104;2022-12-18T08:10:03;25.50;;;16.60;;
8088;SDS011;57635;49.194;12.104;2022-12-18T08:12:33;23.33;;;16.70;;
8088;SDS011;57635;49.194;12.104;2022-12-18T08:15:01;25.70;;;18.57;;
8088;SDS011;57635;49.194;12.104;2022-12-18T08:17:29;32.63;;;20.50;;
8088;SDS011;57635;49.194;12.104;2022-12-18T08:19:57;31.07;;;21.23;;
8088;SDS011;57635;49.194;12.104;2022-12-18T08:22:25;32.10;;;19.73;;
8088;SDS011;57635;49.194;12.104;2022-12-18T08:24:53;26.70;;;18.47;;
8088;SDS011;57635;49.194;12.104;2022-12-18T08:27:20;28.77;;;17.87;;
8088;SDS011;57635;49.194;12.104;2022-12-18T08:29:57;28.07;;;18.50;;
8088;SDS011;57635;49.194;12.104;2022-12-18T08:32:25;29.57;;;22.83;;
8088;SDS011;57635;49.194;12.104;2022-12-18T08:34:53;53.87;;;39.23;;
8088;SDS011;57635;49.194;12.104;2022-12-18T08:37:21;25.40;;;19.10;;
8088;SDS011;57635;49.194;12.104;2022-12-18T08:39:49;24.23;;;18.07;;
8088;SDS011;57635;49.194;12.104;2022-12-18T08:42:16;28.20;;;19.43;;
8088;SDS011;57635;49.194;12.104;2022-12-18T08:45:02;24.70;;;18.83;;
8088;SDS011;57635;49.194;12.104;2022-12-18T08:47:30;27.03;;;20.13;;
8088;SDS011;57635;49.194;12.104;2022-12-18T08:49:58;31.37;;;18.70;;
8088;SDS011;57635;49.194;12.104;2022-12-18T08:52:26;26.47;;;18.23;;
8088;SDS011;57635;49.194;12.104;2022-12-18T08:54:54;27.87;;;19.70;;
8088;SDS011;57635;49.194;12.104;2022-12-18T08:57:21;25.77;;;18.20;;
8088;SDS011;57635;49.194;12.104;2022-12-18T08:59:49;25.80;;;17.27;;
8088;SDS011;57635;49.194;12.104;2022-12-18T09:02:19;26.20;;;17.17;;
8088;SDS011;57635;49.194;12.104;2022-12-18T09:04:47;27.37;;;17.90;;
8088;SDS011;57635;49.194;12.104;2022-12-18T09:07:22;23.80;;;16.33;;
8088;SDS011;57635;49.194;12.104;2022-12-18T09:09:49;24.00;;;16.90;;
8088;SDS011;57635;49.194;12.104;2022-12-18T09:12:17;28.97;;;20.07;;
8088;SDS011;57635;49.194;12.104;2022-12-18T09:14:45;26.37;;;18.10;;
8088;SDS011;57635;49.194;12.104;2022-12-18T09:17:12;28.57;;;17.90;;
8088;SDS011;57635;49.194;12.104;2022-12-18T09:19:41;22.83;;;18.57;;
8088;SDS011;57635;49.194;12.104;2022-12-18T09:22:09;22.53;;;15.57;;
8088;SDS011;57635;49.194;12.104;2022-12-18T09:24:37;23.80;;;15.37;;
8088;SDS011;57635;49.194;12.104;2022-12-18T09:27:04;24.80;;;18.15;;
8088;SDS011;57635;49.194;12.104;2022-12-18T09:29:32;27.00;;;18.45;;
8088;SDS011;57635;49.194;12.104;2022-12-18T09:32:00;26.63;;;20.67;;
8088;SDS011;57635;49.194;12.104;2022-12-18T09:34:27;23.47;;;16.93;;
8088;SDS011;57635;49.194;12.104;2022-12-18T09:36:56;26.20;;;17.60;;
8088;SDS011;57635;49.194;12.104;2022-12-18T09:39:24;28.83;;;20.73;;
8088;SDS011;57635;49.194;12.104;2022-12-18T09:41:52;22.60;;;16.40;;
8088;SDS011;57635;49.194;12.104;2022-12-18T09:44:23;26.45;;;19.13;;
8088;SDS011;57635;49.194;12.104;2022-12-18T09:46:54;21.67;;;15.67;;
8088;SDS011;57635;49.194;12.104;2022-12-18T09:49:30;26.93;;;16.57;;
8088;SDS011;57635;49.194;12.104;2022-12-18T09:52:03;26.80;;;20.63;;
8088;SDS011;57635;49.194;12.104;2022-12-18T09:54:35;24.88;;;18.17;;
8088;SDS011;57635;49.194;12.104;2022-12-18T09:57:06;23.27;;;17.33;;
8088;SDS011;57635;49.194;12.104;2022-12-18T09:59:40;22.13;;;16.57;;
8088;SDS011;57635;49.194;12.104;2022-12-18T10:02:16;30.50;;;23.17;;
8088;SDS011;57635;49.194;12.104;2022-12-18T10:04:49;27.00;;;20.80;;
8088;SDS011;57635;49.194;12.104;2022-12-18T10:07:24;25.07;;;18.00;;
8088;SDS011;57635;49.194;12.104;2022-12-18T10:09:57;21.43;;;15.90;;
8088;SDS011;57635;49.194;12.104;2022-12-18T10:12:30;20.97;;;14.67;;
8088;SDS011;57635;49.194;12.104;2022-12-18T10:15:01;21.27;;;16.13;;
8088;SDS011;57635;49.194;12.104;2022-12-18T10:17:33;21.50;;;14.07;;
8088;SDS011;57635;49.194;12.104;2022-12-18T10:20:09;22.87;;;14.83;;
8088;SDS011;57635;49.194;12.104;2022-12-18T10:22:50;20.60;;;14.37;;
8088;SDS011;57635;49.194;12.104;2022-12-18T10:25:22;21.37;;;15.63;;
8088;SDS011;57635;49.194;12.104;2022-12-18T10:27:52;23.10;;;15.10;;
8088;SDS011;57635;49.194;12.104;2022-12-18T10:30:22;19.03;;;12.97;;
8088;SDS011;57635;49.194;12.104;2022-12-18T10:32:51;18.07;;;13.37;;
8088;SDS011;57635;49.194;12.104;2022-12-18T10:35:19;15.67;;;11.57;;
8088;SDS011;57635;49.194;12.104;2022-12-18T10:38:05;17.50;;;13.47;;
8088;SDS011;57635;49.194;12.104;2022-12-18T10:40:47;16.80;;;12.10;;
8088;SDS011;57635;49.194;12.104;2022-12-18T10:43:19;16.43;;;12.47;;
8088;SDS011;57635;49.194;12.104;2022-12-18T10:48:47;17.63;;;12.20;;
8088;SDS011;57635;49.194;12.104;2022-12-18T10:51:21;19.10;;;12.57;;
8088;SDS011;57635;49.194;12.104;2022-12-18T10:53:55;19.00;;;13.30;;
8088;SDS011;57635;49.194;12.104;2022-12-18T10:56:24;14.97;;;12.03;;
8088;SDS011;57635;49.194;12.104;2022-12-18T10:58:58;15.27;;;11.63;;
8088;SDS011;57635;49.194;12.104;2022-12-18T11:01:27;20.50;;;13.10;;
8088;SDS011;57635;49.194;12.104;2022-12-18T11:03:59;16.30;;;12.87;;
8088;SDS011;57635;49.194;12.104;2022-12-18T11:06:28;17.53;;;12.97;;
8088;SDS011;57635;49.194;12.104;2022-12-18T11:08:59;17.23;;;12.60;;
8088;SDS011;57635;49.194;12.104;2022-12-18T11:11:31;18.27;;;13.13;;
8088;SDS011;57635;49.194;12.104;2022-12-18T11:14:01;20.63;;;13.37;;
8088;SDS011;57635;49.194;12.104;2022-12-18T11:16:30;19.67;;;13.23;;
8088;SDS011;57635;49.194;12.104;2022-12-18T11:19:13;17.87;;;12.80;;
8088;SDS011;57635;49.194;12.104;2022-12-18T11:21:48;19.60;;;14.33;;
8088;SDS011;57635;49.194;12.104;2022-12-18T11:24:19;18.67;;;13.53;;
8088;SDS011;57635;49.194;12.104;2022-12-18T11:26:48;19.57;;;11.57;;
8088;SDS011;57635;49.194;12.104;2022-12-18T11:29:27;18.00;;;12.83;;
8088;SDS011;57635;49.194;12.104;2022-12-18T11:34:57;18.97;;;14.53;;
8088;SDS011;57635;49.194;12.104;2022-12-18T11:37:28;17.13;;;12.90;;
8088;SDS011;57635;49.194;12.104;2022-12-18T11:39:58;18.73;;;13.40;;
8088;SDS011;57635;49.194;12.104;2022-12-18T11:42:31;17.63;;;13.50;;
8088;SDS011;57635;49.194;12.104;2022-12-18T11:45:21;16.77;;;12.13;;
8088;SDS011;57635;49.194;12.104;2022-12-18T11:47:54;19.23;;;13.43;;
8088;SDS011;57635;49.194;12.104;2022-12-18T11:50:26;15.70;;;13.00;;
8088;SDS011;57635;49.194;12.104;2022-12-18T11:52:56;16.13;;;12.50;;
8088;SDS011;57635;49.194;12.104;2022-12-18T11:55:35;18.33;;;14.80;;
8088;SDS011;57635;49.194;12.104;2022-12-18T11:58:07;15.50;;;12.60;;
8088;SDS011;57635;49.194;12.104;2022-12-18T12:00:40;18.63;;;13.00;;
8088;SDS011;57635;49.194;12.104;2022-12-18T12:03:16;16.60;;;12.37;;
8088;SDS011;57635;49.194;12.104;2022-12-18T12:05:53;16.57;;;12.70;;
8088;SDS011;57635;49.194;12.104;2022-12-18T12:08:29;15.43;;;12.07;;
8088;SDS011;57635;49.194;12.104;2022-12-18T12:11:07;19.00;;;12.67;;
8088;SDS011;57635;49.194;12.104;2022-12-18T12:13:43;16.77;;;11.60;;
8088;SDS011;57635;49.194;12.104;2022-12-18T12:16:17;18.77;;;13.77;;
8088;SDS011;57635;49.194;12.104;2022-12-18T12:18:58;17.87;;;12.13;;
8088;SDS011;57635;49.194;12.104;2022-12-18T12:21:34;20.13;;;12.80;;
8088;SDS011;57635;49.194;12.104;2022-12-18T12:24:07;19.70;;;13.23;;
8088;SDS011;57635;49.194;12.104;2022-12-18T12:26:45;15.43;;;12.23;;
8088;SDS011;57635;49.194;12.104;2022-12-18T12:29:21;18.77;;;12.87;;
8088;SDS011;57635;49.194;12.104;2022-12-18T12:31:58;16.63;;;12.97;;
8088;SDS011;57635;49.194;12.104;2022-12-18T12:34:33;18.17;;;13.73;;
8088;SDS011;57635;49.194;12.104;2022-12-18T12:37:05;16.97;;;12.47;;
8088;SDS011;57635;49.194;12.104;2022-12-18T12:39:40;16.87;;;12.97;;
8088;SDS011;57635;49.194;12.104;2022-12-18T12:42:12;17.13;;;13.23;;
8088;SDS011;57635;49.194;12.104;2022-12-18T12:45:01;19.97;;;13.57;;
8088;SDS011;57635;49.194;12.104;2022-12-18T12:47:33;19.37;;;13.63;;
8088;SDS011;57635;49.194;12.104;2022-12-18T12:50:05;17.03;;;12.97;;
8088;SDS011;57635;49.194;12.104;2022-12-18T12:52:40;16.63;;;12.00;;
8088;SDS011;57635;49.194;12.104;2022-12-18T12:55:12;19.07;;;13.60;;
8088;SDS011;57635;49.194;12.104;2022-12-18T12:57:45;19.03;;;14.33;;
8088;SDS011;57635;49.194;12.104;2022-12-18T13:00:15;15.17;;;11.67;;
8088;SDS011;57635;49.194;12.104;2022-12-18T13:02:47;17.90;;;12.90;;
8088;SDS011;57635;49.194;12.104;2022-12-18T13:05:19;17.00;;;13.10;;
8088;SDS011;57635;49.194;12.104;2022-12-18T13:07:52;14.27;;;11.87;;
8088;SDS011;57635;49.194;12.104;2022-12-18T13:10:26;16.63;;;12.10;;
8088;SDS011;57635;49.194;12.104;2022-12-18T13:13:00;16.70;;;12.10;;
8088;SDS011;57635;49.194;12.104;2022-12-18T13:15:33;17.33;;;12.47;;
8088;SDS011;57635;49.194;12.104;2022-12-18T13:18:10;22.17;;;17.27;;
8088;SDS011;57635;49.194;12.104;2022-12-18T13:20:41;24.03;;;18.83;;
8088;SDS011;57635;49.194;12.104;2022-12-18T13:23:19;22.83;;;15.47;;
8088;SDS011;57635;49.194;12.104;2022-12-18T13:25:54;16.60;;;12.50;;
8088;SDS011;57635;49.194;12.104;2022-12-18T13:28:50;14.53;;;12.23;;
8088;SDS011;57635;49.194;12.104;2022-12-18T13:34:35;16.10;;;12.03;;
8088;SDS011;57635;49.194;12.104;2022-12-18T13:43:28;16.17;;;13.00;;
8088;SDS011;57635;49.194;12.104;2022-12-18T13:45:59;16.63;;;13.17;;
8088;SDS011;57635;49.194;12.104;2022-12-18T13:48:30;18.90;;;13.90;;
8088;SDS011;57635;49.194;12.104;2022-12-18T13:51:00;14.53;;;11.77;;
8088;SDS011;57635;49.194;12.104;2022-12-18T13:53:30;17.37;;;13.47;;
8088;SDS011;57635;49.194;12.104;2022-12-18T13:56:01;17.87;;;14.57;;
8088;SDS011;57635;49.194;12.104;2022-12-18T13:58:31;18.20;;;14.77;;
8088;SDS011;57635;49.194;12.104;2022-12-18T14:00:59;16.97;;;13.50;;
8088;SDS011;57635;49.194;12.104;2022-12-18T14:03:29;18.83;;;14.57;;
8088;SDS011;57635;49.194;12.104;2022-12-18T14:05:59;17.47;;;14.60;;
8088;SDS011;57635;49.194;12.104;2022-12-18T14:08:32;17.77;;;13.83;;
8088;SDS011;57635;49.194;12.104;2022-12-18T14:11:03;22.67;;;16.17;;
8088;SDS011;57635;49.194;12.104;2022-12-18T14:13:35;19.43;;;15.40;;
8088;SDS011;57635;49.194;12.104;2022-12-18T14:16:04;16.23;;;13.83;;
8088;SDS011;57635;49.194;12.104;2022-12-18T14:18:38;20.43;;;14.57;;
8088;SDS011;57635;49.194;12.104;2022-12-18T14:21:16;18.97;;;13.33;;
8088;SDS011;57635;49.194;12.104;2022-12-18T14:23:45;18.00;;;14.20;;
8088;SDS011;57635;49.194;12.104;2022-12-18T14:26:21;15.20;;;13.57;;
8088;SDS011;57635;49.194;12.104;2022-12-18T14:28:56;16.60;;;14.40;;
8088;SDS011;57635;49.194;12.104;2022-12-18T14:31:24;17.53;;;14.30;;
8088;SDS011;57635;49.194;12.104;2022-12-18T14:33:53;19.47;;;15.10;;
8088;SDS011;57635;49.194;12.104;2022-12-18T14:36:22;20.30;;;15.50;;
8088;SDS011;57635;49.194;12.104;2022-12-18T14:38:51;22.77;;;17.40;;
8088;SDS011;57635;49.194;12.104;2022-12-18T14:41:20;22.07;;;17.60;;
8088;SDS011;57635;49.194;12.104;2022-12-18T14:43:49;22.63;;;16.20;;
8088;SDS011;57635;49.194;12.104;2022-12-18T14:46:29;18.70;;;14.90;;
8088;SDS011;57635;49.194;12.104;2022-12-18T14:49:01;18.13;;;13.63;;
8088;SDS011;57635;49.194;12.104;2022-12-18T14:51:30;18.73;;;15.30;;
8088;SDS011;57635;49.194;12.104;2022-12-18T14:54:00;23.20;;;15.53;;
8088;SDS011;57635;49.194;12.104;2022-12-18T14:56:29;18.63;;;14.77;;